Time;durP1;ratioP1;P1;durP2;ratioP2;P2;SDS_P1;SDS_P2;PMS_P1;PMS_P2;Temp;Humidity;BMP_temperature;BMP_pressure;BME280_temperature;BME280_humidity;BME280_pressure;Samples;Min_cycle;Max_cycle;Signal;HPM_P1;HPM_P2
2022/08/30 00:03:05;;;;;;;7.45;6.68;;;19.30;71.20;;;;;;4999166;28;20033;-77
2022/08/30 00:05:32;;;;;;;8.95;6.20;;;19.30;71.20;;;;;;4996136;28;20040;-77
2022/08/30 00:07:58;;;;;;;8.00;5.88;;;19.20;71.40;;;;;;4995919;28;20025;-77
2022/08/30 00:10:25;;;;;;;7.07;6.38;;;19.10;71.60;;;;;;4996107;28;20069;-77
2022/08/30 00:12:51;;;;;;;11.80;7.90;;;19.10;71.80;;;;;;5013671;28;20026;-78
2022/08/30 00:15:18;;;;;;;10.60;7.47;;;18.90;72.50;;;;;;4995845;28;20022;-77
2022/08/30 00:17:44;;;;;;;9.98;7.40;;;18.60;74.10;;;;;;4979883;28;20382;-75
2022/08/30 00:20:15;;;;;;;9.75;7.10;;;18.40;74.30;;;;;;4996141;28;20033;-76
2022/08/30 00:22:41;;;;;;;10.05;6.90;;;18.10;75.70;;;;;;4995940;28;20104;-76
2022/08/30 00:25:07;;;;;;;10.45;8.55;;;17.80;76.80;;;;;;4995648;28;20498;-76
2022/08/30 00:27:33;;;;;;;10.63;8.25;;;17.60;77.80;;;;;;4995927;28;20022;-76
2022/08/30 00:29:58;;;;;;;12.60;8.70;;;17.50;78.70;;;;;;4979531;28;20040;-77
2022/08/30 00:32:24;;;;;;;10.48;8.68;;;17.40;79.10;;;;;;4995784;28;20018;-77
2022/08/30 00:34:52;;;;;;;11.73;7.82;;;17.30;79.50;;;;;;4995360;28;20486;-76
2022/08/30 00:37:18;;;;;;;12.43;8.30;;;17.30;79.60;;;;;;4995974;28;20076;-77
2022/08/30 00:39:46;;;;;;;10.80;8.25;;;17.20;79.90;;;;;;4979794;28;20117;-77
2022/08/30 00:42:12;;;;;;;12.07;8.18;;;17.20;79.90;;;;;;4979516;28;20022;-77
2022/08/30 00:44:39;;;;;;;12.63;8.57;;;17.20;79.90;;;;;;4995552;28;20445;-77
2022/08/30 00:47:05;;;;;;;9.88;8.32;;;17.20;80.00;;;;;;4995991;28;20140;-77
2022/08/30 00:49:33;;;;;;;12.13;8.13;;;17.20;80.00;;;;;;4995547;28;20510;-77
2022/08/30 00:51:59;;;;;;;16.75;8.60;;;17.20;80.00;;;;;;5017270;28;20026;-76
2022/08/30 00:54:26;;;;;;;9.07;7.78;;;17.20;80.00;;;;;;5012554;28;20089;-75
2022/08/30 00:56:52;;;;;;;10.43;8.75;;;17.30;79.80;;;;;;5004874;28;20029;-76
2022/08/30 00:59:18;;;;;;;11.48;8.68;;;17.40;79.00;;;;;;5004532;28;20125;-77
2022/08/30 01:01:44;;;;;;;10.15;8.63;;;17.30;79.10;;;;;;4999595;28;20022;-76
2022/08/30 01:04:12;;;;;;;11.30;9.00;;;17.30;79.40;;;;;;4996475;28;20026;-76
2022/08/30 01:06:38;;;;;;;11.18;8.25;;;17.30;79.30;;;;;;5013378;28;20032;-76
2022/08/30 01:09:05;;;;;;;12.65;8.55;;;17.30;79.50;;;;;;4995608;28;20444;-76
2022/08/30 01:11:34;;;;;;;11.77;7.95;;;17.30;79.20;;;;;;4995444;28;20026;-76
2022/08/30 01:14:02;;;;;;;9.23;7.90;;;17.50;79.10;;;;;;4995847;28;20018;-77
2022/08/30 01:16:31;;;;;;;10.25;8.35;;;17.50;78.70;;;;;;4995381;28;20023;-75
2022/08/30 01:18:57;;;;;;;9.68;8.20;;;17.60;78.10;;;;;;4994941;28;20022;-74
2022/08/30 01:21:46;;;;;;;10.43;7.53;;;17.60;78.10;;;;;;4995709;28;20080;-76
2022/08/30 01:24:12;;;;;;;11.20;7.78;;;17.60;78.30;;;;;;4995479;28;20137;-76
2022/08/30 01:26:40;;;;;;;9.48;7.28;;;17.70;78.00;;;;;;4995086;28;20038;-76
2022/08/30 01:29:10;;;;;;;8.40;7.43;;;17.80;77.50;;;;;;4995460;28;20054;-76
2022/08/30 01:31:35;;;;;;;9.50;7.88;;;17.90;76.70;;;;;;4995269;28;20076;-76
2022/08/30 01:34:04;;;;;;;11.20;7.75;;;17.90;76.80;;;;;;4996429;28;20018;-77
2022/08/30 01:36:30;;;;;;;8.35;7.55;;;17.70;77.20;;;;;;4999164;28;20018;-76
2022/08/30 01:38:57;;;;;;;11.10;8.48;;;17.70;77.50;;;;;;4999036;28;20037;-77
2022/08/30 01:41:29;;;;;;;11.93;8.45;;;17.60;77.90;;;;;;4999096;28;20085;-77
2022/08/30 01:43:57;;;;;;;10.15;8.13;;;17.50;78.10;;;;;;4998836;28;20049;-76
2022/08/30 01:46:26;;;;;;;9.50;7.90;;;17.50;78.40;;;;;;5013576;28;20030;-77
2022/08/30 01:48:54;;;;;;;8.48;7.60;;;17.60;78.30;;;;;;5011446;28;20469;-76
2022/08/30 01:51:23;;;;;;;10.80;7.72;;;17.70;77.90;;;;;;4999221;28;20033;-76
2022/08/30 01:53:49;;;;;;;9.27;7.05;;;17.80;77.80;;;;;;4982250;28;20041;-76
2022/08/30 01:56:15;;;;;;;9.55;6.93;;;17.90;77.10;;;;;;4999094;28;20536;-76
2022/08/30 01:58:41;;;;;;;8.95;7.32;;;17.90;76.80;;;;;;4998823;28;20057;-77
2022/08/30 02:01:13;;;;;;;9.55;7.15;;;18.00;76.80;;;;;;4998473;28;20553;-76
2022/08/30 02:03:42;;;;;;;7.47;6.60;;;18.00;76.30;;;;;;4998586;28;20060;-76
2022/08/30 02:06:11;;;;;;;7.45;6.75;;;17.90;76.10;;;;;;4998866;28;20087;-76
2022/08/30 02:08:38;;;;;;;7.95;7.05;;;17.90;77.10;;;;;;4998166;28;20033;-76
2022/08/30 02:11:05;;;;;;;8.13;6.65;;;17.90;76.20;;;;;;4998687;28;20500;-76
2022/08/30 02:13:31;;;;;;;8.23;6.40;;;17.90;76.20;;;;;;4998568;28;20374;-77
2022/08/30 02:15:57;;;;;;;10.70;7.22;;;17.80;75.90;;;;;;4998724;28;20026;-76
2022/08/30 02:18:24;;;;;;;7.32;6.63;;;17.80;76.10;;;;;;4983572;28;20057;-76
2022/08/30 02:20:50;;;;;;;8.95;6.70;;;17.80;76.30;;;;;;4998642;28;20521;-77
2022/08/30 02:23:16;;;;;;;13.82;8.00;;;17.70;76.70;;;;;;4998135;28;20026;-76
2022/08/30 02:25:42;;;;;;;8.80;7.07;;;17.90;76.70;;;;;;4998342;28;20041;-77
2022/08/30 02:28:08;;;;;;;8.38;6.80;;;17.90;76.20;;;;;;4998293;28;20026;-76
2022/08/30 02:30:34;;;;;;;8.70;7.75;;;17.80;75.90;;;;;;4997905;28;20389;-75
2022/08/30 02:33:00;;;;;;;10.52;7.15;;;17.70;76.10;;;;;;4998278;28;20026;-75
2022/08/30 02:35:26;;;;;;;10.30;7.22;;;17.70;76.10;;;;;;4997744;28;20036;-75
2022/08/30 02:37:52;;;;;;;7.75;6.72;;;17.60;76.50;;;;;;4997893;28;20425;-75
2022/08/30 02:40:18;;;;;;;9.05;7.28;;;17.50;76.80;;;;;;4997866;28;20032;-75
2022/08/30 02:42:44;;;;;;;9.93;6.68;;;17.40;77.20;;;;;;4997937;28;20026;-75
2022/08/30 02:45:10;;;;;;;7.13;6.35;;;17.50;77.10;;;;;;4997389;28;20536;-75
2022/08/30 02:47:36;;;;;;;11.02;7.05;;;17.70;77.50;;;;;;4997054;28;20037;-76
2022/08/30 02:50:07;;;;;;;10.48;7.13;;;17.60;76.70;;;;;;4997847;28;20441;-75
2022/08/30 02:52:33;;;;;;;8.07;6.65;;;17.60;76.60;;;;;;4997662;28;20408;-76
2022/08/30 02:54:59;;;;;;;12.25;8.07;;;17.60;76.30;;;;;;4997216;28;20046;-75
2022/08/30 02:57:24;;;;;;;7.65;6.95;;;17.60;76.70;;;;;;4997678;28;20447;-76
2022/08/30 02:59:50;;;;;;;10.60;7.03;;;17.60;76.10;;;;;;4997654;28;20417;-75
2022/08/30 03:02:16;;;;;;;10.43;7.53;;;17.50;76.70;;;;;;4997564;28;20030;-75
2022/08/30 03:04:43;;;;;;;8.50;6.88;;;17.40;76.80;;;;;;5014851;28;20041;-75
2022/08/30 03:07:11;;;;;;;9.98;6.80;;;17.40;77.00;;;;;;4997170;28;20026;-76
2022/08/30 03:09:37;;;;;;;12.82;7.57;;;17.40;77.20;;;;;;4981260;28;20185;-76
2022/08/30 03:12:04;;;;;;;10.18;7.80;;;17.40;77.50;;;;;;4981094;28;20040;-76
2022/08/30 03:14:30;;;;;;;13.02;7.43;;;17.40;77.40;;;;;;4997442;28;20382;-76
2022/08/30 03:16:56;;;;;;;8.75;6.82;;;17.40;77.30;;;;;;4997033;28;20076;-76
2022/08/30 03:19:22;;;;;;;9.23;6.93;;;17.40;77.20;;;;;;4997009;28;20471;-76
2022/08/30 03:21:49;;;;;;;10.35;7.97;;;17.40;77.40;;;;;;4996860;28;20029;-75
2022/08/30 03:24:14;;;;;;;10.80;7.10;;;17.40;76.90;;;;;;4997164;28;20053;-76
2022/08/30 03:26:40;;;;;;;7.13;6.43;;;17.40;76.60;;;;;;4997329;28;20108;-76
2022/08/30 03:29:06;;;;;;;8.38;6.55;;;17.40;76.50;;;;;;4997012;28;20081;-76
2022/08/30 03:31:31;;;;;;;8.50;7.15;;;17.40;77.00;;;;;;4996931;28;20080;-75
2022/08/30 03:33:57;;;;;;;10.43;6.88;;;17.40;76.90;;;;;;5014149;28;20029;-76
2022/08/30 03:36:23;;;;;;;9.57;7.03;;;17.50;76.60;;;;;;4996991;28;20021;-75
2022/08/30 03:38:48;;;;;;;10.98;7.30;;;17.50;76.50;;;;;;4996794;28;20038;-76
2022/08/30 03:41:16;;;;;;;9.30;7.63;;;17.50;76.30;;;;;;4996683;28;20022;-76
2022/08/30 03:43:42;;;;;;;10.32;7.82;;;17.40;76.30;;;;;;4996379;28;20026;-76
2022/08/30 03:46:09;;;;;;;8.70;7.80;;;17.10;78.00;;;;;;4996532;28;20044;-75
2022/08/30 03:48:35;;;;;;;11.38;8.15;;;17.00;78.80;;;;;;4996258;28;20165;-77
2022/08/30 03:51:01;;;;;;;9.18;7.63;;;17.00;79.10;;;;;;4996611;28;20026;-77
2022/08/30 03:53:26;;;;;;;9.55;7.70;;;17.00;78.90;;;;;;4996471;28;20528;-72
2022/08/30 03:55:52;;;;;;;10.57;8.65;;;16.90;78.70;;;;;;5013797;28;20054;-72
2022/08/30 03:58:17;;;;;;;10.32;8.35;;;16.90;78.40;;;;;;5013348;28;20018;-72
2022/08/30 04:00:43;;;;;;;11.13;8.70;;;16.90;78.10;;;;;;5013629;28;20474;-72
2022/08/30 04:03:08;;;;;;;11.38;8.73;;;16.70;78.30;;;;;;5014528;28;20378;-72
2022/08/30 04:05:34;;;;;;;13.30;9.45;;;16.70;78.70;;;;;;4996331;28;20061;-72
2022/08/30 04:08:00;;;;;;;12.93;8.95;;;16.70;78.90;;;;;;4996375;28;20025;-72
2022/08/30 04:10:25;;;;;;;12.40;9.13;;;16.60;79.10;;;;;;5013482;28;20034;-72
2022/08/30 04:12:52;;;;;;;12.82;8.52;;;16.60;79.10;;;;;;5013836;28;20426;-72
2022/08/30 04:15:19;;;;;;;10.75;8.35;;;16.60;79.10;;;;;;5017095;28;20078;-73
2022/08/30 04:17:45;;;;;;;8.77;6.88;;;16.60;79.40;;;;;;5027026;28;20025;-73
2022/08/30 04:20:10;;;;;;;8.27;7.38;;;16.70;79.50;;;;;;5013560;28;20025;-72
2022/08/30 04:22:36;;;;;;;8.85;6.80;;;16.70;79.50;;;;;;5013471;28;20040;-73
2022/08/30 04:25:03;;;;;;;10.55;6.93;;;16.70;79.40;;;;;;5013468;28;20041;-73
2022/08/30 04:27:28;;;;;;;9.43;7.20;;;16.80;79.30;;;;;;5013377;28;20113;-73
2022/08/30 04:29:54;;;;;;;6.78;6.18;;;16.80;79.10;;;;;;5013449;28;20059;-73
2022/08/30 04:32:20;;;;;;;8.50;7.45;;;16.80;78.90;;;;;;5013410;28;20033;-73
2022/08/30 04:34:46;;;;;;;9.27;7.07;;;16.80;78.70;;;;;;5013512;28;20041;-73
2022/08/30 04:37:12;;;;;;;8.05;7.35;;;16.80;78.50;;;;;;5013185;28;20032;-73
2022/08/30 04:39:38;;;;;;;7.72;6.95;;;16.80;78.30;;;;;;4995706;28;20367;-73
2022/08/30 04:42:03;;;;;;;13.15;7.63;;;16.80;78.50;;;;;;5013439;28;20474;-73
2022/08/30 04:44:31;;;;;;;7.43;6.70;;;16.80;78.40;;;;;;5013579;28;20048;-73
2022/08/30 04:46:57;;;;;;;9.25;7.18;;;16.80;78.40;;;;;;5013184;28;20057;-73
2022/08/30 04:49:23;;;;;;;9.88;7.15;;;16.80;78.30;;;;;;5013443;28;20018;-73
2022/08/30 04:51:49;;;;;;;7.18;6.47;;;16.80;78.10;;;;;;5013400;28;20358;-73
2022/08/30 04:54:14;;;;;;;9.18;7.28;;;16.80;78.10;;;;;;5013239;28;20049;-73
2022/08/30 04:56:40;;;;;;;9.80;7.00;;;16.80;78.10;;;;;;5013658;28;20057;-73
2022/08/30 04:59:06;;;;;;;8.98;6.95;;;16.80;78.20;;;;;;5017048;28;20484;-74
2022/08/30 05:01:32;;;;;;;8.88;7.10;;;16.80;78.30;;;;;;5018134;28;20026;-73
2022/08/30 05:03:58;;;;;;;6.97;6.25;;;16.80;78.10;;;;;;5023867;28;20022;-73
2022/08/30 05:06:26;;;;;;;7.30;6.45;;;16.80;77.70;;;;;;5029895;28;20038;-73
2022/08/30 05:08:52;;;;;;;7.68;6.25;;;16.80;77.70;;;;;;5027533;28;20017;-74
2022/08/30 05:11:18;;;;;;;10.00;7.75;;;16.90;77.70;;;;;;5032647;28;20026;-73
2022/08/30 05:13:45;;;;;;;33.92;9.68;;;16.90;77.50;;;;;;5038493;28;20025;-73
2022/08/30 05:16:16;;;;;;;15.02;8.75;;;17.00;80.20;;;;;;5037305;28;20026;-72
2022/08/30 05:18:43;;;;;;;14.30;8.27;;;17.10;78.90;;;;;;5035122;28;20018;-72
2022/08/30 05:21:25;;;;;;;9.38;7.70;;;17.20;78.20;;;;;;5034002;28;20025;-75
2022/08/30 05:23:53;;;;;;;9.32;7.18;;;17.30;77.60;;;;;;5022963;28;20033;-72
2022/08/30 05:26:23;;;;;;;10.32;7.13;;;17.30;76.90;;;;;;5021881;28;20038;-72
2022/08/30 05:28:49;;;;;;;11.85;7.22;;;17.50;76.30;;;;;;5021273;28;20033;-73
2022/08/30 05:31:20;;;;;;;10.57;7.20;;;17.50;76.00;;;;;;5020554;28;20026;-72
2022/08/30 05:33:47;;;;;;;7.82;6.20;;;17.70;75.30;;;;;;5015884;28;20125;-69
2022/08/30 05:36:14;;;;;;;9.73;7.15;;;18.00;74.40;;;;;;5020568;28;20564;-71
2022/08/30 05:38:40;;;;;;;10.63;6.80;;;18.00;73.70;;;;;;5017027;28;20030;-73
2022/08/30 05:41:06;;;;;;;10.93;7.22;;;18.10;73.40;;;;;;5017337;28;20034;-72
2022/08/30 05:43:32;;;;;;;8.00;7.20;;;18.20;73.20;;;;;;5016873;28;20026;-73
2022/08/30 05:46:02;;;;;;;8.02;6.28;;;18.20;73.30;;;;;;5017202;28;20030;-72
2022/08/30 05:48:28;;;;;;;11.23;7.55;;;18.20;73.50;;;;;;5016439;28;20072;-73
2022/08/30 05:51:07;;;;;;;10.40;7.35;;;18.30;73.30;;;;;;5016126;28;20478;-72
2022/08/30 05:53:33;;;;;;;7.43;6.63;;;18.40;73.00;;;;;;5016029;28;20084;-72
2022/08/30 05:56:00;;;;;;;8.07;6.68;;;18.60;72.50;;;;;;5015987;28;20077;-72
2022/08/30 05:58:26;;;;;;;8.75;7.45;;;18.60;72.50;;;;;;5014815;28;20033;-74
2022/08/30 06:00:52;;;;;;;10.95;6.75;;;18.80;72.20;;;;;;5014717;28;20474;-80
2022/08/30 06:03:17;;;;;;;15.30;7.80;;;18.90;72.00;;;;;;5016212;28;20018;-74
2022/08/30 06:05:43;;;;;;;9.80;6.65;;;19.10;71.50;;;;;;5016040;28;20470;-72
2022/08/30 06:08:08;;;;;;;11.88;7.38;;;19.30;71.00;;;;;;5015880;28;20026;-72
2022/08/30 06:10:34;;;;;;;12.02;7.28;;;19.40;70.50;;;;;;5015964;28;20655;-77
2022/08/30 06:12:59;;;;;;;11.52;5.93;;;19.50;70.00;;;;;;5015790;28;20100;-72
2022/08/30 06:15:25;;;;;;;8.70;7.18;;;19.60;69.60;;;;;;5015787;28;20107;-74
2022/08/30 06:17:51;;;;;;;8.65;7.22;;;19.70;69.50;;;;;;5015650;28;20054;-73
2022/08/30 06:20:19;;;;;;;7.43;6.53;;;19.80;69.20;;;;;;5015115;28;20057;-72
2022/08/30 06:22:44;;;;;;;9.07;7.53;;;19.80;68.80;;;;;;5015502;28;20017;-73
2022/08/30 06:25:11;;;;;;;11.25;7.80;;;19.80;68.80;;;;;;5015174;28;20030;-73
2022/08/30 06:27:37;;;;;;;12.10;8.88;;;19.90;68.90;;;;;;5015514;28;20045;-74
2022/08/30 06:30:07;;;;;;;12.30;7.93;;;19.90;68.90;;;;;;5015419;28;20018;-73
2022/08/30 06:32:33;;;;;;;10.48;8.18;;;19.90;68.80;;;;;;5015373;28;20060;-73
2022/08/30 06:34:59;;;;;;;10.15;8.48;;;20.00;68.90;;;;;;5018035;28;20026;-82
2022/08/30 06:37:25;;;;;;;10.88;7.50;;;20.00;68.90;;;;;;5030457;28;20378;-72
2022/08/30 06:39:51;;;;;;;11.02;8.02;;;20.10;68.80;;;;;;5015161;28;20018;-72
2022/08/30 06:42:17;;;;;;;13.23;7.82;;;20.20;68.70;;;;;;5015067;28;20076;-77
2022/08/30 06:44:44;;;;;;;8.40;7.55;;;20.20;68.40;;;;;;5014871;28;20071;-73
2022/08/30 06:47:10;;;;;;;7.80;7.00;;;20.30;68.30;;;;;;5015277;28;20442;-74
2022/08/30 06:49:35;;;;;;;12.75;6.80;;;20.40;68.10;;;;;;5015109;28;20030;-74
2022/08/30 06:52:01;;;;;;;8.43;6.75;;;20.50;67.80;;;;;;5014799;28;20433;-73
2022/08/30 06:54:27;;;;;;;17.25;8.70;;;20.50;67.80;;;;;;5014524;28;20060;-71
2022/08/30 06:56:53;;;;;;;9.45;7.57;;;20.70;67.80;;;;;;5014706;28;20045;-72
2022/08/30 06:59:19;;;;;;;12.73;7.20;;;20.60;67.60;;;;;;5014823;28;20393;-76
2022/08/30 07:01:44;;;;;;;15.48;8.90;;;20.80;67.40;;;;;;5014873;28;20049;-74
2022/08/30 07:04:10;;;;;;;10.27;7.90;;;20.90;66.90;;;;;;5015070;28;20028;-74
2022/08/30 07:06:35;;;;;;;8.90;7.50;;;21.00;66.70;;;;;;5014787;28;20046;-75
2022/08/30 07:09:01;;;;;;;12.90;7.68;;;21.10;66.30;;;;;;5014807;28;20473;-74
2022/08/30 07:11:29;;;;;;;14.48;7.80;;;21.20;66.00;;;;;;5014645;28;20026;-74
2022/08/30 07:13:55;;;;;;;11.80;7.43;;;21.20;66.10;;;;;;5014482;28;20408;-75
2022/08/30 07:16:21;;;;;;;10.60;7.05;;;21.20;66.00;;;;;;5014927;28;20022;-75
2022/08/30 07:18:49;;;;;;;11.65;6.45;;;21.30;66.00;;;;;;5014863;28;20493;-76
2022/08/30 07:21:17;;;;;;;11.43;7.65;;;21.20;65.90;;;;;;5014846;28;20627;-75
2022/08/30 07:23:44;;;;;;;7.78;6.25;;;21.30;66.50;;;;;;5013339;28;20037;-73
2022/08/30 07:26:13;;;;;;;8.90;6.72;;;21.40;66.40;;;;;;5015434;28;20119;-73
2022/08/30 07:28:42;;;;;;;11.48;7.57;;;21.40;66.20;;;;;;5013668;28;20472;-74
2022/08/30 07:31:08;;;;;;;15.95;8.48;;;21.50;66.30;;;;;;5014110;28;20030;-74
2022/08/30 07:33:34;;;;;;;12.27;8.90;;;21.50;67.10;;;;;;5014049;28;20029;-75
2022/08/30 07:36:00;;;;;;;7.85;7.00;;;21.40;67.10;;;;;;5015092;28;20026;-74
2022/08/30 07:38:26;;;;;;;11.15;7.03;;;21.40;66.80;;;;;;5015224;28;20034;-78
2022/08/30 07:40:52;;;;;;;12.23;7.80;;;21.60;66.60;;;;;;5014062;28;20025;-75
2022/08/30 07:43:17;;;;;;;9.70;6.55;;;21.50;67.40;;;;;;5014504;28;20101;-73
2022/08/30 07:45:43;;;;;;;13.45;7.65;;;21.60;66.80;;;;;;5013963;28;20528;-73
2022/08/30 07:48:10;;;;;;;17.65;7.68;;;21.50;67.80;;;;;;5013743;28;20022;-71
2022/08/30 07:50:36;;;;;;;20.48;8.30;;;21.40;68.50;;;;;;5013393;28;20025;-69
2022/08/30 07:53:02;;;;;;;13.05;7.35;;;21.50;67.90;;;;;;5013808;28;20021;-70
2022/08/30 07:55:28;;;;;;;12.25;7.53;;;21.70;67.10;;;;;;5013367;28;20467;-70
2022/08/30 07:57:53;;;;;;;13.50;7.18;;;21.70;67.80;;;;;;5013303;28;20061;-70
2022/08/30 08:00:19;;;;;;;8.00;6.97;;;21.80;67.00;;;;;;5013608;28;20071;-70
2022/08/30 08:02:45;;;;;;;14.20;7.63;;;22.00;66.80;;;;;;5013696;28;20110;-72
2022/08/30 08:05:13;;;;;;;14.68;7.03;;;22.10;66.80;;;;;;5013690;28;20030;-68
2022/08/30 08:07:39;;;;;;;9.15;7.28;;;22.00;66.40;;;;;;5013604;28;20049;-70
2022/08/30 08:10:05;;;;;;;10.80;7.10;;;22.10;67.70;;;;;;5012214;28;20030;-69
2022/08/30 08:12:30;;;;;;;11.70;7.70;;;22.20;66.70;;;;;;5012997;28;20057;-70
2022/08/30 08:14:56;;;;;;;9.48;7.28;;;22.40;65.90;;;;;;5013468;28;20050;-70
2022/08/30 08:17:21;;;;;;;11.80;7.28;;;22.40;65.80;;;;;;5013416;28;20101;-75
2022/08/30 08:19:47;;;;;;;9.98;6.93;;;22.40;65.60;;;;;;5013446;28;20017;-70
2022/08/30 08:22:12;;;;;;;11.80;7.80;;;22.40;65.40;;;;;;5013199;28;20092;-69
2022/08/30 08:24:38;;;;;;;8.43;6.85;;;22.30;65.60;;;;;;5013213;28;20026;-70
2022/08/30 08:27:04;;;;;;;8.35;6.43;;;22.30;66.50;;;;;;5013155;28;20045;-68
2022/08/30 08:29:30;;;;;;;8.65;6.90;;;22.40;65.10;;;;;;5013150;28;20022;-74
2022/08/30 08:31:56;;;;;;;10.30;6.60;;;22.60;65.60;;;;;;5013174;28;20065;-72
2022/08/30 08:34:22;;;;;;;8.95;7.10;;;22.70;65.30;;;;;;5013161;28;20358;-72
2022/08/30 08:36:49;;;;;;;10.05;7.57;;;22.70;64.90;;;;;;5013059;28;20038;-72
2022/08/30 08:39:16;;;;;;;11.13;7.72;;;22.90;64.30;;;;;;5013220;28;20028;-71
2022/08/30 08:41:44;;;;;;;10.93;7.50;;;23.00;63.30;;;;;;5013404;28;20453;-72
2022/08/30 08:44:42;;;;;;;12.45;7.88;;;23.10;63.20;;;;;;5013104;28;20041;-72
2022/08/30 08:47:30;;;;;;;12.65;7.72;;;23.30;62.80;;;;;;5011885;28;20045;-72
2022/08/30 08:50:01;;;;;;;11.43;6.97;;;23.30;62.80;;;;;;4985704;28;20041;-72
2022/08/30 08:55:47;;;;;;;9.20;6.63;;;23.60;62.30;;;;;;5014044;28;20145;-72
2022/08/30 08:58:27;;;;;;;9.82;6.30;;;23.70;61.50;;;;;;5013683;28;20018;-71
2022/08/30 09:00:55;;;;;;;14.05;7.22;;;23.90;61.90;;;;;;5013430;28;20065;-71
2022/08/30 09:03:23;;;;;;;8.95;6.30;;;24.10;61.20;;;;;;5013532;28;20018;-70
2022/08/30 09:05:49;;;;;;;9.75;6.95;;;24.30;60.50;;;;;;5012811;28;20029;-72
2022/08/30 09:08:17;;;;;;;7.97;6.50;;;24.50;59.50;;;;;;5012844;28;20029;-74
2022/08/30 09:11:00;;;;;;;13.15;6.72;;;24.60;59.30;;;;;;5011511;28;20055;-73
2022/08/30 09:13:26;;;;;;;13.75;6.57;;;24.80;58.00;;;;;;5012836;28;20030;-72
2022/08/30 09:15:53;;;;;;;6.35;5.75;;;24.90;56.60;;;;;;5011475;28;20405;-72
2022/08/30 09:18:19;;;;;;;8.93;5.22;;;25.10;56.90;;;;;;5012969;28;20443;-72
2022/08/30 09:20:47;;;;;;;13.25;5.10;;;25.30;53.10;;;;;;5012833;28;20544;-72
2022/08/30 09:23:16;;;;;;;14.40;5.32;;;25.50;47.10;;;;;;5012723;28;20025;-73
2022/08/30 09:26:07;;;;;;;7.07;4.80;;;25.60;47.40;;;;;;5012929;28;20378;-75
2022/08/30 09:28:43;;;;;;;5.07;4.03;;;25.80;46.40;;;;;;5012792;28;20466;-76
2022/08/30 09:31:26;;;;;;;4.60;3.67;;;25.90;43.20;;;;;;5012577;28;20512;-75
2022/08/30 09:34:04;;;;;;;5.00;3.95;;;26.00;44.60;;;;;;5012787;28;20382;-77
2022/08/30 09:36:40;;;;;;;3.53;3.22;;;26.10;42.80;;;;;;5012476;28;20030;-84
2022/08/30 09:39:14;;;;;;;5.60;3.42;;;26.20;40.70;;;;;;5012784;28;20084;-82
2022/08/30 09:41:43;;;;;;;7.50;3.47;;;26.40;39.50;;;;;;5012527;28;20014;-79
2022/08/30 09:44:23;;;;;;;5.43;3.30;;;26.40;38.50;;;;;;5012507;28;20537;-78
2022/08/30 09:46:51;;;;;;;5.90;3.30;;;26.50;39.20;;;;;;5012264;28;20497;-78
2022/08/30 09:49:49;;;;;;;4.57;3.35;;;26.40;39.40;;;;;;5013403;28;20022;-79
2022/08/30 09:52:31;;;;;;;3.63;3.33;;;26.70;38.80;;;;;;4990872;28;20083;-83
2022/08/30 09:55:15;;;;;;;4.13;3.20;;;26.80;39.00;;;;;;5014331;28;20046;-86
2022/08/30 09:57:59;;;;;;;3.75;3.38;;;27.10;39.50;;;;;;5016414;28;20025;-85
2022/08/30 10:00:27;;;;;;;5.72;3.20;;;27.40;38.10;;;;;;5015695;28;20029;-80
2022/08/30 10:03:00;;;;;;;4.85;3.33;;;27.60;37.70;;;;;;5015776;28;20409;-78
2022/08/30 10:05:37;;;;;;;4.95;3.65;;;27.90;36.40;;;;;;5014328;28;20022;-78
2022/08/30 10:08:40;;;;;;;5.75;3.55;;;28.00;37.10;;;;;;5015380;28;20425;-78
2022/08/30 10:11:27;;;;;;;3.78;3.22;;;28.20;36.80;;;;;;5014631;28;20033;-78
2022/08/30 10:13:58;;;;;;;5.07;3.63;;;28.50;36.30;;;;;;5015725;28;20022;-78
2022/08/30 10:16:39;;;;;;;4.47;3.22;;;28.50;35.30;;;;;;5015761;28;20386;-78
2022/08/30 10:19:38;;;;;;;4.57;3.50;;;28.40;35.70;;;;;;5014394;28;20069;-78
2022/08/30 10:22:17;;;;;;;4.40;3.15;;;28.00;35.70;;;;;;5015544;28;20371;-78
2022/08/30 10:24:50;;;;;;;3.28;2.95;;;27.90;35.00;;;;;;5015542;28;20091;-78
2022/08/30 10:27:24;;;;;;;4.45;2.83;;;27.90;35.00;;;;;;5015615;28;20033;-78
2022/08/30 10:30:01;;;;;;;3.05;2.67;;;28.20;36.10;;;;;;5015278;28;20045;-78
2022/08/30 10:32:36;;;;;;;4.47;3.00;;;28.60;36.30;;;;;;5015521;28;20474;-78
2022/08/30 10:35:27;;;;;;;5.20;3.05;;;28.80;34.50;;;;;;5015602;28;20022;-78
2022/08/30 10:37:55;;;;;;;3.95;2.80;;;28.80;33.30;;;;;;5015175;28;20037;-78
2022/08/30 10:43:48;;;;;;;4.53;3.30;;;28.50;34.00;;;;;;5016189;28;20117;-78
2022/08/30 10:46:37;;;;;;;3.60;2.95;;;28.40;35.10;;;;;;5015607;28;20024;-78
2022/08/30 10:49:09;;;;;;;5.45;3.60;;;28.30;34.70;;;;;;5021809;28;20026;-77
2022/08/30 10:51:54;;;;;;;3.63;2.83;;;28.20;34.90;;;;;;5032994;28;20458;-78
2022/08/30 10:54:32;;;;;;;4.27;3.20;;;28.10;35.30;;;;;;5015470;28;20125;-78
2022/08/30 10:56:59;;;;;;;6.53;3.17;;;28.10;34.30;;;;;;5015190;28;20276;-78
2022/08/30 10:59:25;;;;;;;4.72;2.80;;;28.00;34.50;;;;;;5014937;28;20069;-78
2022/08/30 11:02:14;;;;;;;5.13;3.28;;;27.90;33.40;;;;;;5014317;28;20030;-78
2022/08/30 11:04:58;;;;;;;6.15;3.33;;;27.90;33.90;;;;;;5014905;28;20109;-78
2022/08/30 11:07:48;;;;;;;3.63;3.03;;;28.00;34.20;;;;;;5013530;28;20449;-79
2022/08/30 11:10:24;;;;;;;4.25;3.20;;;28.10;33.70;;;;;;5015406;28;20482;-79
2022/08/30 11:13:14;;;;;;;4.63;3.17;;;28.40;34.70;;;;;;5013629;28;20037;-79
2022/08/30 11:16:08;;;;;;;3.28;2.97;;;28.60;32.90;;;;;;5014737;28;20033;-78
2022/08/30 11:18:41;;;;;;;3.28;2.97;;;28.60;31.50;;;;;;5014591;28;20045;-82
2022/08/30 11:21:39;;;;;;;4.93;3.30;;;28.50;32.50;;;;;;5014722;28;20022;-77
2022/08/30 11:24:08;;;;;;;6.68;3.50;;;28.40;33.10;;;;;;5014427;28;20478;-80
2022/08/30 11:26:49;;;;;;;4.40;3.08;;;28.20;32.60;;;;;;5014701;28;20028;-75
2022/08/30 11:29:37;;;;;;;4.25;2.83;;;28.30;32.70;;;;;;5014759;28;20029;-78
2022/08/30 11:32:11;;;;;;;3.60;2.80;;;28.60;33.40;;;;;;5014158;28;20022;-75
2022/08/30 11:34:46;;;;;;;3.53;2.92;;;28.90;33.40;;;;;;5014398;28;20033;-80
2022/08/30 11:37:46;;;;;;;4.88;3.67;;;29.00;32.20;;;;;;5014086;28;20040;-77
2022/08/30 11:40:23;;;;;;;6.32;3.13;;;29.40;31.50;;;;;;4992249;28;20112;-79
2022/08/30 11:42:53;;;;;;;6.05;2.95;;;29.60;30.20;;;;;;5014143;28;20083;-82
2022/08/30 11:45:21;;;;;;;5.18;3.38;;;29.60;30.50;;;;;;5014132;28;20026;-78
2022/08/30 11:47:57;;;;;;;5.15;3.15;;;29.80;29.90;;;;;;5015658;28;20129;-88
2022/08/30 11:50:54;;;;;;;3.33;2.97;;;30.00;30.80;;;;;;5014855;28;20029;-85
2022/08/30 11:53:42;;;;;;;3.80;3.28;;;30.30;30.60;;;;;;5014038;28;20065;-79
2022/08/30 11:56:21;;;;;;;2.90;2.60;;;30.30;28.40;;;;;;5013654;28;20041;-74
2022/08/30 11:58:56;;;;;;;6.35;3.67;;;30.30;29.10;;;;;;5012722;28;20025;-74
2022/08/30 12:01:25;;;;;;;5.15;3.45;;;30.40;28.60;;;;;;5014186;28;20029;-79
2022/08/30 12:03:57;;;;;;;4.88;3.80;;;30.20;29.40;;;;;;5021233;28;20082;-79
2022/08/30 12:06:41;;;;;;;3.72;3.33;;;30.20;29.60;;;;;;5017931;28;20053;-82
2022/08/30 12:09:25;;;;;;;3.40;3.05;;;30.40;29.30;;;;;;5015615;28;20029;-85
2022/08/30 12:11:58;;;;;;;4.57;3.47;;;30.80;29.90;;;;;;5015887;28;20080;-80
2022/08/30 12:14:50;;;;;;;4.30;3.13;;;31.20;29.20;;;;;;5014054;28;20405;-83
2022/08/30 12:20:29;;;;;;;6.55;3.20;;;31.80;28.10;;;;;;5013292;28;20137;-81
2022/08/30 12:22:56;;;;;;;3.53;2.97;;;32.10;26.60;;;;;;5013357;28;20422;-79
2022/08/30 12:25:32;;;;;;;4.18;3.13;;;32.20;25.90;;;;;;5011943;28;20030;-77
2022/08/30 12:28:15;;;;;;;2.92;2.72;;;31.70;24.50;;;;;;5013521;28;20049;-76
2022/08/30 12:30:42;;;;;;;3.50;3.00;;;31.30;26.20;;;;;;5012883;28;20030;-76
2022/08/30 12:33:13;;;;;;;5.13;3.30;;;31.40;27.50;;;;;;5013298;28;20065;-77
2022/08/30 12:35:41;;;;;;;4.32;3.05;;;31.40;27.80;;;;;;5012155;28;20034;-77
2022/08/30 12:38:16;;;;;;;3.33;3.03;;;31.40;27.60;;;;;;5013214;28;20056;-75
2022/08/30 12:40:50;;;;;;;4.40;2.88;;;31.30;27.90;;;;;;5013968;28;20026;-92
2022/08/30 12:43:24;;;;;;;3.53;3.10;;;31.20;28.50;;;;;;5013981;28;20032;-75
2022/08/30 12:45:50;;;;;;;5.65;3.88;;;31.30;28.50;;;;;;5012941;28;20038;-76
2022/08/30 12:48:18;;;;;;;5.45;3.45;;;31.50;27.70;;;;;;5012913;28;20132;-76
2022/08/30 12:50:50;;;;;;;3.78;3.00;;;31.70;26.40;;;;;;5013391;28;20052;-76
2022/08/30 12:53:27;;;;;;;3.10;2.65;;;31.60;26.50;;;;;;5012973;28;20109;-75
2022/08/30 12:55:58;;;;;;;3.83;2.50;;;31.60;26.70;;;;;;5012577;28;20124;-76
2022/08/30 12:58:46;;;;;;;3.90;2.88;;;31.60;26.20;;;;;;5012879;28;20049;-75
2022/08/30 13:01:23;;;;;;;4.03;3.63;;;31.70;26.80;;;;;;5014202;28;20109;-75
2022/08/30 13:04:18;;;;;;;4.05;3.30;;;31.70;28.10;;;;;;5013390;28;20026;-75
2022/08/30 13:06:58;;;;;;;3.78;3.30;;;31.60;27.20;;;;;;5013252;28;20030;-74
2022/08/30 13:09:29;;;;;;;3.95;3.15;;;31.70;28.40;;;;;;5014016;28;20030;-74